Airport ICAO


14:31 UTC

11°C

Overcast


An affordable passengers' Moving Map for your aircraft. Made for the iPad and the iPhone
More information here

LFMC Le Cannet


Le Luc FRANCE   VFR


METAR LFMC 241400Z AUTO 00000KT 9999 FEW018 SCT045 OVC052 11/09 Q1020 0h31min





NOTAMS

OPEN